Hauptseite
METAR-TAF:

METAR-TAF

Flughäfen :

Masvingo, Simbabwe

Breite: 20-04S, Länge: 030-52E, Höhe: 1094 m

Beobachtung

Neuester Wetterbericht von vor 3 Stunden und 45 Minuten, um 18:00 UTC
Wind 5 kt aus Ost/Südost
Temperatur 15°C
Luftfeuchtigkeit 59%
Luftdruck 1022 hPa
Sichtweite 10 km oder mehr
keine Wolken unter 1500 m und keine Kumulonimbus oder Gewitterwolken

METAR: FVMV 181800Z 12005KT CAVOK 15/07 Q1022 NOSIG

Zeit: 23:45 (21:45 UTC)


TAF: fehlend

Wetterbeobachtungen und Prognosen von mehr als 4000 Flughäfen (METAR und TAF Bericht).

Die verfügbaren Stationen werden durch gelbe und rote Markierungen auf der Karte dargestellt.

Führen Sie die Maus auf sie, um den Namen der Station zu sehen.

Darauf klicken, um die Beobachtung von Wetterbeobachtungen und Prognosen zu sehen.

Um die Karte zu ändern : klicken Sie auf den grünen Tasten mit einem schwarzen Kreuz Zum Vergrößern, auf den grünen Button mit einem Gedankenstrich zu verkleinern, oder auf die grünen Pfeile für benachbarte Karten.


METAR-TAF: